sensor_id;sensor_type;location;lat;lon;timestamp;P1;durP1;ratioP1;P2;durP2;ratioP2
29200;SDS011;16244;51.956;12.980;2023-08-06T00:01:51;66.53;;;41.90;;
29200;SDS011;16244;51.956;12.980;2023-08-06T00:04:19;79.57;;;63.37;;
29200;SDS011;16244;51.956;12.980;2023-08-06T00:06:46;89.10;;;58.60;;
29200;SDS011;16244;51.956;12.980;2023-08-06T00:09:14;57.30;;;36.97;;
29200;SDS011;16244;51.956;12.980;2023-08-06T00:11:41;60.53;;;46.57;;
29200;SDS011;16244;51.956;12.980;2023-08-06T00:14:11;58.33;;;40.37;;
29200;SDS011;16244;51.956;12.980;2023-08-06T00:16:42;73.60;;;44.23;;
29200;SDS011;16244;51.956;12.980;2023-08-06T00:19:10;79.00;;;57.67;;
29200;SDS011;16244;51.956;12.980;2023-08-06T00:21:43;73.23;;;48.47;;
29200;SDS011;16244;51.956;12.980;2023-08-06T00:24:10;60.90;;;41.97;;
29200;SDS011;16244;51.956;12.980;2023-08-06T00:26:38;65.23;;;40.73;;
29200;SDS011;16244;51.956;12.980;2023-08-06T00:29:06;100.97;;;63.80;;
29200;SDS011;16244;51.956;12.980;2023-08-06T00:31:35;66.33;;;46.83;;
29200;SDS011;16244;51.956;12.980;2023-08-06T00:34:02;72.03;;;47.90;;
29200;SDS011;16244;51.956;12.980;2023-08-06T00:36:30;59.43;;;40.60;;
29200;SDS011;16244;51.956;12.980;2023-08-06T00:38:57;84.00;;;63.30;;
29200;SDS011;16244;51.956;12.980;2023-08-06T00:41:24;74.67;;;46.03;;
29200;SDS011;16244;51.956;12.980;2023-08-06T00:43:52;62.10;;;47.60;;
29200;SDS011;16244;51.956;12.980;2023-08-06T00:46:19;71.77;;;45.20;;
29200;SDS011;16244;51.956;12.980;2023-08-06T00:48:49;63.67;;;47.37;;
29200;SDS011;16244;51.956;12.980;2023-08-06T00:51:18;64.63;;;42.97;;
29200;SDS011;16244;51.956;12.980;2023-08-06T00:53:47;75.07;;;48.00;;
29200;SDS011;16244;51.956;12.980;2023-08-06T00:56:15;58.43;;;40.80;;
29200;SDS011;16244;51.956;12.980;2023-08-06T00:58:43;72.07;;;45.30;;
29200;SDS011;16244;51.956;12.980;2023-08-06T01:01:11;87.10;;;61.07;;
29200;SDS011;16244;51.956;12.980;2023-08-06T01:03:39;70.73;;;46.40;;
29200;SDS011;16244;51.956;12.980;2023-08-06T01:06:08;65.67;;;43.47;;
29200;SDS011;16244;51.956;12.980;2023-08-06T01:08:37;64.37;;;47.07;;
29200;SDS011;16244;51.956;12.980;2023-08-06T01:11:14;76.83;;;63.10;;
29200;SDS011;16244;51.956;12.980;2023-08-06T01:13:50;64.63;;;49.33;;
29200;SDS011;16244;51.956;12.980;2023-08-06T01:16:25;82.77;;;60.97;;
29200;SDS011;16244;51.956;12.980;2023-08-06T01:18:53;52.17;;;46.63;;
29200;SDS011;16244;51.956;12.980;2023-08-06T01:21:21;74.50;;;48.73;;
29200;SDS011;16244;51.956;12.980;2023-08-06T01:23:49;76.87;;;59.20;;
29200;SDS011;16244;51.956;12.980;2023-08-06T01:26:19;69.93;;;49.00;;
29200;SDS011;16244;51.956;12.980;2023-08-06T01:28:55;73.30;;;64.63;;
29200;SDS011;16244;51.956;12.980;2023-08-06T01:31:27;91.33;;;51.30;;
29200;SDS011;16244;51.956;12.980;2023-08-06T01:33:57;68.03;;;51.80;;
29200;SDS011;16244;51.956;12.980;2023-08-06T01:36:27;73.33;;;48.63;;
29200;SDS011;16244;51.956;12.980;2023-08-06T01:38:56;74.50;;;49.00;;
29200;SDS011;16244;51.956;12.980;2023-08-06T01:41:24;59.93;;;42.60;;
29200;SDS011;16244;51.956;12.980;2023-08-06T01:43:52;78.77;;;49.57;;
29200;SDS011;16244;51.956;12.980;2023-08-06T01:46:19;61.30;;;47.70;;
29200;SDS011;16244;51.956;12.980;2023-08-06T01:48:47;66.33;;;47.37;;
29200;SDS011;16244;51.956;12.980;2023-08-06T01:51:14;63.57;;;48.57;;
29200;SDS011;16244;51.956;12.980;2023-08-06T01:53:43;73.00;;;49.90;;
29200;SDS011;16244;51.956;12.980;2023-08-06T01:56:10;69.67;;;43.67;;
29200;SDS011;16244;51.956;12.980;2023-08-06T01:58:38;61.50;;;49.73;;
29200;SDS011;16244;51.956;12.980;2023-08-06T02:01:05;82.17;;;66.57;;
29200;SDS011;16244;51.956;12.980;2023-08-06T02:03:33;72.70;;;47.30;;
29200;SDS011;16244;51.956;12.980;2023-08-06T02:06:00;62.67;;;47.90;;
29200;SDS011;16244;51.956;12.980;2023-08-06T02:08:28;97.67;;;67.77;;
29200;SDS011;16244;51.956;12.980;2023-08-06T02:10:56;66.77;;;56.20;;
29200;SDS011;16244;51.956;12.980;2023-08-06T02:13:25;76.23;;;66.07;;
29200;SDS011;16244;51.956;12.980;2023-08-06T02:15:52;73.30;;;55.67;;
29200;SDS011;16244;51.956;12.980;2023-08-06T02:18:20;67.43;;;50.50;;
29200;SDS011;16244;51.956;12.980;2023-08-06T02:20:54;68.63;;;50.27;;
29200;SDS011;16244;51.956;12.980;2023-08-06T02:23:23;63.03;;;46.03;;
29200;SDS011;16244;51.956;12.980;2023-08-06T02:25:57;72.47;;;42.77;;
29200;SDS011;16244;51.956;12.980;2023-08-06T02:28:25;84.63;;;75.50;;
29200;SDS011;16244;51.956;12.980;2023-08-06T02:30:53;51.97;;;40.77;;
29200;SDS011;16244;51.956;12.980;2023-08-06T02:33:20;68.93;;;44.57;;
29200;SDS011;16244;51.956;12.980;2023-08-06T02:35:48;106.83;;;72.27;;
29200;SDS011;16244;51.956;12.980;2023-08-06T02:38:16;80.13;;;46.40;;
29200;SDS011;16244;51.956;12.980;2023-08-06T02:40:43;82.67;;;64.97;;
29200;SDS011;16244;51.956;12.980;2023-08-06T02:43:13;77.57;;;66.37;;
29200;SDS011;16244;51.956;12.980;2023-08-06T02:45:40;70.73;;;45.67;;
29200;SDS011;16244;51.956;12.980;2023-08-06T02:48:07;55.97;;;46.77;;
29200;SDS011;16244;51.956;12.980;2023-08-06T02:50:38;72.73;;;50.23;;
29200;SDS011;16244;51.956;12.980;2023-08-06T02:53:06;71.83;;;48.03;;
29200;SDS011;16244;51.956;12.980;2023-08-06T02:55:33;69.93;;;49.90;;
29200;SDS011;16244;51.956;12.980;2023-08-06T02:58:01;82.67;;;50.13;;
29200;SDS011;16244;51.956;12.980;2023-08-06T03:00:30;62.83;;;45.67;;
29200;SDS011;16244;51.956;12.980;2023-08-06T03:02:57;77.10;;;51.53;;
29200;SDS011;16244;51.956;12.980;2023-08-06T03:05:25;63.77;;;46.27;;
29200;SDS011;16244;51.956;12.980;2023-08-06T03:07:53;56.27;;;45.93;;
29200;SDS011;16244;51.956;12.980;2023-08-06T03:10:20;72.80;;;43.47;;
29200;SDS011;16244;51.956;12.980;2023-08-06T03:12:48;64.80;;;51.60;;
29200;SDS011;16244;51.956;12.980;2023-08-06T03:15:15;100.60;;;54.70;;
29200;SDS011;16244;51.956;12.980;2023-08-06T03:17:44;64.47;;;48.10;;
29200;SDS011;16244;51.956;12.980;2023-08-06T03:20:11;68.00;;;53.60;;
29200;SDS011;16244;51.956;12.980;2023-08-06T03:22:39;71.10;;;53.70;;
29200;SDS011;16244;51.956;12.980;2023-08-06T03:25:06;71.30;;;49.33;;
29200;SDS011;16244;51.956;12.980;2023-08-06T03:27:34;72.60;;;54.27;;
29200;SDS011;16244;51.956;12.980;2023-08-06T03:30:01;78.63;;;52.27;;
29200;SDS011;16244;51.956;12.980;2023-08-06T03:32:30;72.13;;;53.23;;
29200;SDS011;16244;51.956;12.980;2023-08-06T03:34:59;69.30;;;49.60;;
29200;SDS011;16244;51.956;12.980;2023-08-06T03:37:26;90.33;;;75.10;;
29200;SDS011;16244;51.956;12.980;2023-08-06T03:39:54;90.53;;;74.10;;
29200;SDS011;16244;51.956;12.980;2023-08-06T03:42:21;78.50;;;69.97;;
29200;SDS011;16244;51.956;12.980;2023-08-06T03:44:49;76.63;;;51.13;;
29200;SDS011;16244;51.956;12.980;2023-08-06T03:47:16;63.97;;;46.73;;
29200;SDS011;16244;51.956;12.980;2023-08-06T03:49:44;108.33;;;69.87;;
29200;SDS011;16244;51.956;12.980;2023-08-06T03:52:13;63.53;;;53.67;;
29200;SDS011;16244;51.956;12.980;2023-08-06T03:54:40;100.20;;;75.17;;
29200;SDS011;16244;51.956;12.980;2023-08-06T03:57:09;95.83;;;72.03;;
29200;SDS011;16244;51.956;12.980;2023-08-06T03:59:36;73.60;;;53.37;;
29200;SDS011;16244;51.956;12.980;2023-08-06T04:02:04;101.10;;;69.60;;
29200;SDS011;16244;51.956;12.980;2023-08-06T04:04:31;71.17;;;49.90;;
29200;SDS011;16244;51.956;12.980;2023-08-06T04:06:59;66.43;;;54.20;;
29200;SDS011;16244;51.956;12.980;2023-08-06T04:09:28;77.10;;;49.43;;
29200;SDS011;16244;51.956;12.980;2023-08-06T04:11:56;77.57;;;52.57;;
29200;SDS011;16244;51.956;12.980;2023-08-06T04:14:25;76.90;;;54.40;;
29200;SDS011;16244;51.956;12.980;2023-08-06T04:16:53;93.53;;;77.97;;
29200;SDS011;16244;51.956;12.980;2023-08-06T04:19:20;97.77;;;76.40;;
29200;SDS011;16244;51.956;12.980;2023-08-06T04:21:48;103.67;;;80.57;;
29200;SDS011;16244;51.956;12.980;2023-08-06T04:24:15;82.87;;;56.90;;
29200;SDS011;16244;51.956;12.980;2023-08-06T04:26:44;86.97;;;53.40;;
29200;SDS011;16244;51.956;12.980;2023-08-06T04:29:12;70.87;;;56.63;;
29200;SDS011;16244;51.956;12.980;2023-08-06T04:31:39;68.10;;;52.23;;
29200;SDS011;16244;51.956;12.980;2023-08-06T04:34:06;70.90;;;59.90;;
29200;SDS011;16244;51.956;12.980;2023-08-06T04:36:35;72.27;;;53.10;;
29200;SDS011;16244;51.956;12.980;2023-08-06T04:39:03;82.07;;;52.63;;
29200;SDS011;16244;51.956;12.980;2023-08-06T04:41:31;73.03;;;54.80;;
29200;SDS011;16244;51.956;12.980;2023-08-06T04:43:59;72.03;;;54.90;;
29200;SDS011;16244;51.956;12.980;2023-08-06T04:46:27;60.70;;;48.10;;
29200;SDS011;16244;51.956;12.980;2023-08-06T04:48:54;104.97;;;82.20;;
29200;SDS011;16244;51.956;12.980;2023-08-06T04:51:22;65.03;;;49.73;;
29200;SDS011;16244;51.956;12.980;2023-08-06T04:53:49;110.10;;;78.60;;
29200;SDS011;16244;51.956;12.980;2023-08-06T04:56:17;67.70;;;54.50;;
29200;SDS011;16244;51.956;12.980;2023-08-06T04:58:44;77.07;;;57.13;;
29200;SDS011;16244;51.956;12.980;2023-08-06T05:01:13;110.67;;;76.47;;
29200;SDS011;16244;51.956;12.980;2023-08-06T05:03:40;72.57;;;55.63;;
29200;SDS011;16244;51.956;12.980;2023-08-06T05:06:08;68.07;;;52.37;;
29200;SDS011;16244;51.956;12.980;2023-08-06T05:08:36;77.70;;;60.27;;
29200;SDS011;16244;51.956;12.980;2023-08-06T05:11:03;86.87;;;55.87;;
29200;SDS011;16244;51.956;12.980;2023-08-06T05:13:31;61.20;;;51.77;;
29200;SDS011;16244;51.956;12.980;2023-08-06T05:15:58;78.73;;;54.60;;
29200;SDS011;16244;51.956;12.980;2023-08-06T05:18:27;65.07;;;55.23;;
29200;SDS011;16244;51.956;12.980;2023-08-06T05:20:56;88.33;;;76.10;;
29200;SDS011;16244;51.956;12.980;2023-08-06T05:23:23;70.97;;;59.73;;
29200;SDS011;16244;51.956;12.980;2023-08-06T05:25:51;65.30;;;52.50;;
29200;SDS011;16244;51.956;12.980;2023-08-06T05:28:18;76.10;;;67.90;;
29200;SDS011;16244;51.956;12.980;2023-08-06T05:30:46;71.93;;;52.93;;
29200;SDS011;16244;51.956;12.980;2023-08-06T05:33:14;72.67;;;54.50;;
29200;SDS011;16244;51.956;12.980;2023-08-06T05:35:42;63.27;;;52.30;;
29200;SDS011;16244;51.956;12.980;2023-08-06T05:38:10;70.30;;;55.43;;
29200;SDS011;16244;51.956;12.980;2023-08-06T05:40:37;78.77;;;55.13;;
29200;SDS011;16244;51.956;12.980;2023-08-06T05:43:05;73.10;;;43.73;;
29200;SDS011;16244;51.956;12.980;2023-08-06T05:45:32;98.97;;;77.10;;
29200;SDS011;16244;51.956;12.980;2023-08-06T05:48:00;69.23;;;45.43;;
29200;SDS011;16244;51.956;12.980;2023-08-06T05:50:27;91.67;;;72.70;;
29200;SDS011;16244;51.956;12.980;2023-08-06T05:52:56;103.97;;;74.83;;
29200;SDS011;16244;51.956;12.980;2023-08-06T05:55:23;81.90;;;50.03;;
29200;SDS011;16244;51.956;12.980;2023-08-06T05:57:51;89.67;;;73.93;;
29200;SDS011;16244;51.956;12.980;2023-08-06T06:00:18;83.80;;;71.13;;
29200;SDS011;16244;51.956;12.980;2023-08-06T06:02:47;92.40;;;67.13;;
29200;SDS011;16244;51.956;12.980;2023-08-06T06:05:14;85.33;;;60.07;;
29200;SDS011;16244;51.956;12.980;2023-08-06T06:07:42;87.27;;;66.83;;
29200;SDS011;16244;51.956;12.980;2023-08-06T06:10:11;97.40;;;71.00;;
29200;SDS011;16244;51.956;12.980;2023-08-06T06:12:38;54.30;;;41.93;;
29200;SDS011;16244;51.956;12.980;2023-08-06T06:15:06;77.17;;;57.50;;
29200;SDS011;16244;51.956;12.980;2023-08-06T06:17:34;81.00;;;72.10;;
29200;SDS011;16244;51.956;12.980;2023-08-06T06:20:02;73.87;;;52.50;;
29200;SDS011;16244;51.956;12.980;2023-08-06T06:22:30;76.43;;;57.80;;
29200;SDS011;16244;51.956;12.980;2023-08-06T06:24:58;82.17;;;60.40;;
29200;SDS011;16244;51.956;12.980;2023-08-06T06:27:26;97.10;;;68.27;;
29200;SDS011;16244;51.956;12.980;2023-08-06T06:29:54;84.30;;;46.47;;
29200;SDS011;16244;51.956;12.980;2023-08-06T06:32:21;79.50;;;50.37;;
29200;SDS011;16244;51.956;12.980;2023-08-06T06:34:49;64.73;;;43.17;;
29200;SDS011;16244;51.956;12.980;2023-08-06T06:37:16;86.30;;;54.30;;
29200;SDS011;16244;51.956;12.980;2023-08-06T06:39:44;77.00;;;55.07;;
29200;SDS011;16244;51.956;12.980;2023-08-06T06:42:11;72.30;;;49.53;;
29200;SDS011;16244;51.956;12.980;2023-08-06T06:44:42;68.10;;;42.33;;
29200;SDS011;16244;51.956;12.980;2023-08-06T06:47:09;70.67;;;48.83;;
29200;SDS011;16244;51.956;12.980;2023-08-06T06:49:37;73.57;;;53.63;;
29200;SDS011;16244;51.956;12.980;2023-08-06T06:52:05;89.97;;;67.77;;
29200;SDS011;16244;51.956;12.980;2023-08-06T06:54:33;89.23;;;66.27;;
29200;SDS011;16244;51.956;12.980;2023-08-06T06:57:00;81.50;;;51.57;;
29200;SDS011;16244;51.956;12.980;2023-08-06T06:59:28;84.13;;;50.70;;
29200;SDS011;16244;51.956;12.980;2023-08-06T07:01:56;72.50;;;46.40;;
29200;SDS011;16244;51.956;12.980;2023-08-06T07:04:24;63.83;;;42.67;;
29200;SDS011;16244;51.956;12.980;2023-08-06T07:06:51;64.83;;;44.17;;
29200;SDS011;16244;51.956;12.980;2023-08-06T07:09:21;63.83;;;48.13;;
29200;SDS011;16244;51.956;12.980;2023-08-06T07:11:55;88.67;;;69.83;;
29200;SDS011;16244;51.956;12.980;2023-08-06T07:14:25;91.60;;;69.90;;
29200;SDS011;16244;51.956;12.980;2023-08-06T07:16:53;71.40;;;43.10;;
29200;SDS011;16244;51.956;12.980;2023-08-06T07:19:25;67.30;;;42.67;;
29200;SDS011;16244;51.956;12.980;2023-08-06T07:21:55;58.00;;;42.47;;
29200;SDS011;16244;51.956;12.980;2023-08-06T07:24:26;68.93;;;46.60;;
29200;SDS011;16244;51.956;12.980;2023-08-06T07:26:58;59.57;;;43.17;;
29200;SDS011;16244;51.956;12.980;2023-08-06T07:29:28;68.00;;;42.13;;
29200;SDS011;16244;51.956;12.980;2023-08-06T07:31:57;78.17;;;47.73;;
29200;SDS011;16244;51.956;12.980;2023-08-06T07:34:30;76.27;;;58.00;;
29200;SDS011;16244;51.956;12.980;2023-08-06T07:36:59;62.40;;;42.60;;
29200;SDS011;16244;51.956;12.980;2023-08-06T07:39:29;59.30;;;44.37;;
29200;SDS011;16244;51.956;12.980;2023-08-06T07:41:58;69.13;;;57.93;;
29200;SDS011;16244;51.956;12.980;2023-08-06T07:44:28;58.97;;;42.57;;
29200;SDS011;16244;51.956;12.980;2023-08-06T07:46:56;58.20;;;40.27;;
29200;SDS011;16244;51.956;12.980;2023-08-06T07:49:30;61.93;;;46.27;;
29200;SDS011;16244;51.956;12.980;2023-08-06T07:52:00;82.33;;;60.80;;
29200;SDS011;16244;51.956;12.980;2023-08-06T07:54:32;65.23;;;42.53;;
29200;SDS011;16244;51.956;12.980;2023-08-06T07:57:01;75.70;;;45.47;;
29200;SDS011;16244;51.956;12.980;2023-08-06T07:59:45;55.00;;;38.43;;
29200;SDS011;16244;51.956;12.980;2023-08-06T08:02:20;59.87;;;44.13;;
29200;SDS011;16244;51.956;12.980;2023-08-06T08:04:52;58.33;;;39.60;;
29200;SDS011;16244;51.956;12.980;2023-08-06T08:07:24;65.40;;;58.20;;
29200;SDS011;16244;51.956;12.980;2023-08-06T08:09:56;58.60;;;40.07;;
29200;SDS011;16244;51.956;12.980;2023-08-06T08:12:39;67.13;;;57.97;;
29200;SDS011;16244;51.956;12.980;2023-08-06T08:15:14;61.57;;;42.10;;
29200;SDS011;16244;51.956;12.980;2023-08-06T08:17:45;76.40;;;62.03;;
29200;SDS011;16244;51.956;12.980;2023-08-06T08:20:19;59.63;;;40.30;;
29200;SDS011;16244;51.956;12.980;2023-08-06T08:22:49;64.73;;;39.77;;
29200;SDS011;16244;51.956;12.980;2023-08-06T08:25:22;56.57;;;42.63;;
29200;SDS011;16244;51.956;12.980;2023-08-06T08:27:54;57.23;;;40.77;;
29200;SDS011;16244;51.956;12.980;2023-08-06T08:30:24;62.43;;;41.70;;
29200;SDS011;16244;51.956;12.980;2023-08-06T08:32:56;66.37;;;39.83;;
29200;SDS011;16244;51.956;12.980;2023-08-06T08:35:28;74.03;;;56.60;;
29200;SDS011;16244;51.956;12.980;2023-08-06T08:37:59;49.40;;;34.47;;
29200;SDS011;16244;51.956;12.980;2023-08-06T08:40:32;55.77;;;41.97;;
29200;SDS011;16244;51.956;12.980;2023-08-06T08:43:03;45.13;;;35.90;;
29200;SDS011;16244;51.956;12.980;2023-08-06T08:45:32;40.93;;;33.40;;
29200;SDS011;16244;51.956;12.980;2023-08-06T08:48:06;59.13;;;34.87;;
29200;SDS011;16244;51.956;12.980;2023-08-06T08:50:37;58.00;;;40.70;;
29200;SDS011;16244;51.956;12.980;2023-08-06T08:53:05;47.03;;;42.33;;
29200;SDS011;16244;51.956;12.980;2023-08-06T08:55:33;75.00;;;47.70;;
29200;SDS011;16244;51.956;12.980;2023-08-06T08:58:00;46.47;;;34.83;;
29200;SDS011;16244;51.956;12.980;2023-08-06T09:00:28;47.43;;;37.10;;
29200;SDS011;16244;51.956;12.980;2023-08-06T09:02:56;46.93;;;34.43;;
29200;SDS011;16244;51.956;12.980;2023-08-06T09:05:25;41.23;;;34.10;;
29200;SDS011;16244;51.956;12.980;2023-08-06T09:07:58;49.20;;;39.63;;
29200;SDS011;16244;51.956;12.980;2023-08-06T09:10:30;64.70;;;56.93;;
29200;SDS011;16244;51.956;12.980;2023-08-06T09:12:57;49.30;;;41.37;;
29200;SDS011;16244;51.956;12.980;2023-08-06T09:15:27;52.27;;;40.00;;
29200;SDS011;16244;51.956;12.980;2023-08-06T09:17:55;46.20;;;38.30;;
29200;SDS011;16244;51.956;12.980;2023-08-06T09:20:23;52.27;;;35.20;;
29200;SDS011;16244;51.956;12.980;2023-08-06T09:22:53;37.77;;;27.20;;
29200;SDS011;16244;51.956;12.980;2023-08-06T09:25:26;41.07;;;28.80;;
29200;SDS011;16244;51.956;12.980;2023-08-06T09:27:55;55.13;;;37.40;;
29200;SDS011;16244;51.956;12.980;2023-08-06T09:30:29;50.43;;;36.73;;
29200;SDS011;16244;51.956;12.980;2023-08-06T09:32:59;35.27;;;31.43;;
29200;SDS011;16244;51.956;12.980;2023-08-06T09:35:28;53.20;;;45.63;;
29200;SDS011;16244;51.956;12.980;2023-08-06T09:38:01;41.73;;;33.33;;
29200;SDS011;16244;51.956;12.980;2023-08-06T09:40:34;52.90;;;36.37;;
29200;SDS011;16244;51.956;12.980;2023-08-06T09:43:01;39.83;;;33.30;;
29200;SDS011;16244;51.956;12.980;2023-08-06T09:45:30;37.20;;;31.70;;
29200;SDS011;16244;51.956;12.980;2023-08-06T09:47:59;36.37;;;25.90;;
29200;SDS011;16244;51.956;12.980;2023-08-06T09:50:28;39.73;;;33.03;;
29200;SDS011;16244;51.956;12.980;2023-08-06T09:52:58;33.73;;;28.10;;
29200;SDS011;16244;51.956;12.980;2023-08-06T09:55:26;34.97;;;30.70;;
29200;SDS011;16244;51.956;12.980;2023-08-06T09:57:55;32.33;;;28.93;;
29200;SDS011;16244;51.956;12.980;2023-08-06T10:00:23;40.37;;;33.90;;
29200;SDS011;16244;51.956;12.980;2023-08-06T10:02:51;49.63;;;43.60;;
29200;SDS011;16244;51.956;12.980;2023-08-06T10:05:22;57.70;;;30.97;;
29200;SDS011;16244;51.956;12.980;2023-08-06T10:07:50;39.17;;;26.50;;
29200;SDS011;16244;51.956;12.980;2023-08-06T10:10:19;36.50;;;30.93;;
29200;SDS011;16244;51.956;12.980;2023-08-06T10:12:47;36.20;;;31.10;;
29200;SDS011;16244;51.956;12.980;2023-08-06T10:15:20;35.10;;;23.87;;
29200;SDS011;16244;51.956;12.980;2023-08-06T10:17:52;36.93;;;33.13;;
29200;SDS011;16244;51.956;12.980;2023-08-06T10:20:25;42.07;;;37.73;;
29200;SDS011;16244;51.956;12.980;2023-08-06T10:23:00;37.70;;;28.80;;
29200;SDS011;16244;51.956;12.980;2023-08-06T10:25:31;46.40;;;30.87;;
29200;SDS011;16244;51.956;12.980;2023-08-06T10:28:07;52.77;;;35.17;;
29200;SDS011;16244;51.956;12.980;2023-08-06T10:30:44;36.93;;;30.70;;
29200;SDS011;16244;51.956;12.980;2023-08-06T10:33:15;31.23;;;25.80;;
29200;SDS011;16244;51.956;12.980;2023-08-06T10:35:47;30.80;;;22.40;;
29200;SDS011;16244;51.956;12.980;2023-08-06T10:38:16;34.73;;;28.30;;
29200;SDS011;16244;51.956;12.980;2023-08-06T10:40:49;37.13;;;33.20;;
29200;SDS011;16244;51.956;12.980;2023-08-06T10:43:28;32.60;;;28.83;;
29200;SDS011;16244;51.956;12.980;2023-08-06T10:45:59;34.97;;;26.80;;
29200;SDS011;16244;51.956;12.980;2023-08-06T10:48:33;32.13;;;28.07;;
29200;SDS011;16244;51.956;12.980;2023-08-06T10:51:02;35.40;;;31.83;;
29200;SDS011;16244;51.956;12.980;2023-08-06T10:53:32;29.27;;;24.17;;
29200;SDS011;16244;51.956;12.980;2023-08-06T10:56:01;27.60;;;24.97;;
29200;SDS011;16244;51.956;12.980;2023-08-06T10:58:39;34.50;;;26.83;;
29200;SDS011;16244;51.956;12.980;2023-08-06T11:01:08;46.80;;;35.40;;
29200;SDS011;16244;51.956;12.980;2023-08-06T11:03:36;37.10;;;33.50;;
29200;SDS011;16244;51.956;12.980;2023-08-06T11:06:04;30.73;;;24.17;;
29200;SDS011;16244;51.956;12.980;2023-08-06T11:08:34;36.83;;;32.77;;
29200;SDS011;16244;51.956;12.980;2023-08-06T11:11:08;39.00;;;28.40;;
29200;SDS011;16244;51.956;12.980;2023-08-06T11:13:38;37.87;;;26.00;;
29200;SDS011;16244;51.956;12.980;2023-08-06T11:16:07;47.20;;;31.30;;
29200;SDS011;16244;51.956;12.980;2023-08-06T11:18:35;54.93;;;47.10;;
29200;SDS011;16244;51.956;12.980;2023-08-06T11:21:03;40.90;;;35.47;;
29200;SDS011;16244;51.956;12.980;2023-08-06T11:23:30;46.00;;;36.90;;
29200;SDS011;16244;51.956;12.980;2023-08-06T11:25:58;56.90;;;37.27;;
29200;SDS011;16244;51.956;12.980;2023-08-06T11:28:26;54.63;;;47.83;;
29200;SDS011;16244;51.956;12.980;2023-08-06T11:30:53;48.93;;;43.97;;
29200;SDS011;16244;51.956;12.980;2023-08-06T11:33:24;45.30;;;36.50;;
29200;SDS011;16244;51.956;12.980;2023-08-06T11:35:52;49.87;;;33.97;;
29200;SDS011;16244;51.956;12.980;2023-08-06T11:38:22;36.40;;;32.70;;
29200;SDS011;16244;51.956;12.980;2023-08-06T11:40:52;45.97;;;33.63;;
29200;SDS011;16244;51.956;12.980;2023-08-06T11:43:19;44.47;;;38.77;;
29200;SDS011;16244;51.956;12.980;2023-08-06T11:45:48;44.17;;;39.53;;
29200;SDS011;16244;51.956;12.980;2023-08-06T11:48:16;50.63;;;37.57;;
29200;SDS011;16244;51.956;12.980;2023-08-06T11:50:45;50.47;;;33.30;;
29200;SDS011;16244;51.956;12.980;2023-08-06T11:53:13;52.87;;;47.57;;
29200;SDS011;16244;51.956;12.980;2023-08-06T11:55:42;48.70;;;35.20;;
29200;SDS011;16244;51.956;12.980;2023-08-06T11:58:10;64.47;;;49.93;;
29200;SDS011;16244;51.956;12.980;2023-08-06T12:00:38;53.13;;;39.57;;
29200;SDS011;16244;51.956;12.980;2023-08-06T12:03:06;84.20;;;40.87;;
29200;SDS011;16244;51.956;12.980;2023-08-06T12:05:33;65.10;;;43.20;;
29200;SDS011;16244;51.956;12.980;2023-08-06T12:08:02;75.93;;;48.40;;
29200;SDS011;16244;51.956;12.980;2023-08-06T12:10:30;62.30;;;50.57;;
29200;SDS011;16244;51.956;12.980;2023-08-06T12:12:59;62.30;;;46.67;;
29200;SDS011;16244;51.956;12.980;2023-08-06T12:15:28;85.17;;;58.87;;
29200;SDS011;16244;51.956;12.980;2023-08-06T12:17:56;53.27;;;36.53;;
29200;SDS011;16244;51.956;12.980;2023-08-06T12:20:23;69.00;;;47.97;;
29200;SDS011;16244;51.956;12.980;2023-08-06T12:22:51;58.80;;;42.97;;
29200;SDS011;16244;51.956;12.980;2023-08-06T12:25:20;57.57;;;51.40;;
29200;SDS011;16244;51.956;12.980;2023-08-06T12:27:47;63.03;;;50.07;;
29200;SDS011;16244;51.956;12.980;2023-08-06T12:30:15;67.03;;;43.57;;
29200;SDS011;16244;51.956;12.980;2023-08-06T12:32:46;67.03;;;44.83;;
29200;SDS011;16244;51.956;12.980;2023-08-06T12:35:13;56.47;;;50.13;;
29200;SDS011;16244;51.956;12.980;2023-08-06T12:37:41;69.23;;;48.93;;
29200;SDS011;16244;51.956;12.980;2023-08-06T12:40:11;60.23;;;41.17;;
29200;SDS011;16244;51.956;12.980;2023-08-06T12:42:40;68.07;;;46.47;;
29200;SDS011;16244;51.956;12.980;2023-08-06T12:45:07;74.87;;;62.20;;
29200;SDS011;16244;51.956;12.980;2023-08-06T12:47:35;72.07;;;53.80;;
29200;SDS011;16244;51.956;12.980;2023-08-06T12:50:04;82.67;;;48.17;;
29200;SDS011;16244;51.956;12.980;2023-08-06T12:52:32;73.00;;;52.07;;
29200;SDS011;16244;51.956;12.980;2023-08-06T12:55:00;88.00;;;57.83;;
29200;SDS011;16244;51.956;12.980;2023-08-06T12:57:27;67.07;;;43.27;;
29200;SDS011;16244;51.956;12.980;2023-08-06T12:59:56;76.30;;;48.80;;
29200;SDS011;16244;51.956;12.980;2023-08-06T13:02:24;68.07;;;46.57;;
29200;SDS011;16244;51.956;12.980;2023-08-06T13:04:55;66.20;;;40.33;;
29200;SDS011;16244;51.956;12.980;2023-08-06T13:07:23;70.73;;;50.67;;
29200;SDS011;16244;51.956;12.980;2023-08-06T13:09:51;70.33;;;62.70;;
29200;SDS011;16244;51.956;12.980;2023-08-06T13:12:19;86.67;;;60.17;;
29200;SDS011;16244;51.956;12.980;2023-08-06T13:14:48;75.70;;;63.33;;
29200;SDS011;16244;51.956;12.980;2023-08-06T13:17:17;69.77;;;50.17;;
29200;SDS011;16244;51.956;12.980;2023-08-06T13:19:45;79.57;;;63.63;;
29200;SDS011;16244;51.956;12.980;2023-08-06T13:22:13;88.77;;;54.17;;
29200;SDS011;16244;51.956;12.980;2023-08-06T13:24:40;56.00;;;49.90;;
29200;SDS011;16244;51.956;12.980;2023-08-06T13:27:08;77.93;;;63.70;;
29200;SDS011;16244;51.956;12.980;2023-08-06T13:29:36;66.17;;;43.90;;
29200;SDS011;16244;51.956;12.980;2023-08-06T13:32:04;73.93;;;53.63;;
29200;SDS011;16244;51.956;12.980;2023-08-06T13:34:33;58.37;;;47.00;;
29200;SDS011;16244;51.956;12.980;2023-08-06T13:37:01;88.67;;;72.67;;
29200;SDS011;16244;51.956;12.980;2023-08-06T13:39:34;57.00;;;48.40;;
29200;SDS011;16244;51.956;12.980;2023-08-06T13:42:01;71.40;;;52.33;;
29200;SDS011;16244;51.956;12.980;2023-08-06T13:44:33;74.30;;;53.07;;
29200;SDS011;16244;51.956;12.980;2023-08-06T13:47:01;65.00;;;58.77;;
29200;SDS011;16244;51.956;12.980;2023-08-06T13:49:29;85.67;;;65.47;;
29200;SDS011;16244;51.956;12.980;2023-08-06T13:51:57;68.77;;;45.20;;
29200;SDS011;16244;51.956;12.980;2023-08-06T13:54:26;58.00;;;42.40;;
29200;SDS011;16244;51.956;12.980;2023-08-06T13:56:55;64.57;;;52.53;;
29200;SDS011;16244;51.956;12.980;2023-08-06T13:59:23;59.57;;;49.87;;
29200;SDS011;16244;51.956;12.980;2023-08-06T14:01:51;68.73;;;50.70;;
29200;SDS011;16244;51.956;12.980;2023-08-06T14:04:19;70.10;;;49.80;;
29200;SDS011;16244;51.956;12.980;2023-08-06T14:06:47;71.67;;;44.80;;
29200;SDS011;16244;51.956;12.980;2023-08-06T14:09:16;56.83;;;45.63;;
29200;SDS011;16244;51.956;12.980;2023-08-06T14:11:44;58.50;;;43.20;;
29200;SDS011;16244;51.956;12.980;2023-08-06T14:14:12;62.03;;;50.13;;
29200;SDS011;16244;51.956;12.980;2023-08-06T14:16:39;72.23;;;44.80;;
29200;SDS011;16244;51.956;12.980;2023-08-06T14:19:07;79.67;;;49.50;;